createdAt,value
2023-01-18T00:00:47.070Z,23.83
2023-01-18T00:03:14.187Z,21.17
2023-01-18T00:05:42.157Z,20.33
2023-01-18T00:08:14.321Z,24.73
2023-01-18T00:10:41.051Z,19.23
2023-01-18T00:13:08.150Z,18.83
2023-01-18T00:15:35.800Z,23.10
2023-01-18T00:18:03.186Z,20.67
2023-01-18T00:20:30.779Z,20.67
2023-01-18T00:23:00.038Z,18.17
2023-01-18T00:25:27.361Z,17.73
2023-01-18T00:27:54.993Z,18.73
2023-01-18T00:30:26.814Z,22.47
2023-01-18T00:32:56.004Z,23.07
2023-01-18T00:35:23.405Z,25.03
2023-01-18T00:37:51.628Z,23.57
2023-01-18T00:40:19.895Z,29.87
2023-01-18T00:43:05.074Z,23.27
2023-01-18T00:45:32.190Z,25.23
2023-01-18T00:47:59.317Z,29.00
2023-01-18T00:50:26.502Z,31.00
2023-01-18T00:55:25.119Z,32.83
2023-01-18T00:57:52.339Z,25.27
2023-01-18T01:00:19.285Z,31.47
2023-01-18T01:02:47.725Z,31.60
2023-01-18T01:05:40.402Z,26.50
2023-01-18T01:08:07.719Z,23.80
2023-01-18T01:10:35.606Z,25.90
2023-01-18T01:13:21.635Z,23.67
2023-01-18T01:16:07.067Z,23.33
2023-01-18T01:18:53.058Z,24.47
2023-01-18T01:21:38.976Z,24.30
2023-01-18T01:24:24.900Z,21.83
2023-01-18T01:26:51.986Z,25.47
2023-01-18T01:29:18.681Z,21.27
2023-01-18T01:31:45.334Z,29.80
2023-01-18T01:34:12.390Z,22.17
2023-01-18T01:36:39.507Z,24.17
2023-01-18T01:39:08.631Z,18.47
2023-01-18T01:41:35.991Z,25.97
2023-01-18T01:44:04.675Z,21.33
2023-01-18T01:46:50.563Z,20.57
2023-01-18T01:49:20.645Z,16.53
2023-01-18T01:51:58.909Z,30.13
2023-01-18T01:54:27.482Z,20.93
2023-01-18T01:56:57.441Z,19.23
2023-01-18T01:59:24.583Z,22.23
2023-01-18T02:01:51.804Z,21.90
2023-01-18T02:04:19.058Z,22.60
2023-01-18T02:06:46.134Z,19.17
2023-01-18T02:09:15.895Z,21.73
2023-01-18T02:11:43.787Z,19.80
2023-01-18T02:14:12.534Z,27.13
2023-01-18T02:16:58.275Z,18.60
2023-01-18T02:19:28.639Z,20.10
2023-01-18T02:22:08.955Z,16.83
2023-01-18T02:24:59.032Z,20.67
2023-01-18T02:27:43.451Z,24.23
2023-01-18T02:30:17.076Z,21.70
2023-01-18T02:32:56.649Z,21.03
2023-01-18T02:35:32.544Z,24.77
2023-01-18T02:38:17.774Z,17.20
2023-01-18T02:40:56.499Z,18.70
2023-01-18T02:43:43.740Z,19.37
2023-01-18T02:46:31.134Z,19.63
2023-01-18T02:48:58.957Z,21.63
2023-01-18T02:51:26.061Z,19.03
2023-01-18T02:53:52.811Z,20.23
2023-01-18T02:56:25.904Z,23.50
2023-01-18T02:58:55.760Z,18.90
2023-01-18T03:01:41.777Z,17.97
2023-01-18T03:04:15.282Z,17.47
2023-01-18T03:06:45.123Z,19.67
2023-01-18T03:09:18.366Z,22.23
2023-01-18T03:11:54.984Z,21.40
2023-01-18T03:15:01.586Z,24.00
2023-01-18T03:17:40.681Z,18.87
2023-01-18T03:20:14.666Z,18.03
2023-01-18T03:23:24.710Z,16.37
2023-01-18T03:25:54.796Z,20.13
2023-01-18T03:28:46.686Z,21.97
2023-01-18T03:31:37.161Z,20.60
2023-01-18T03:34:19.372Z,23.57
2023-01-18T03:36:49.274Z,19.57
2023-01-18T03:39:38.511Z,18.97
2023-01-18T03:42:11.947Z,20.90
2023-01-18T03:45:03.176Z,23.93
2023-01-18T03:47:30.285Z,19.30
2023-01-18T03:49:58.098Z,21.97
2023-01-18T03:52:39.014Z,20.33
2023-01-18T03:55:10.273Z,26.30
2023-01-18T03:58:09.754Z,24.50
2023-01-18T04:00:40.768Z,17.10
2023-01-18T04:03:07.881Z,23.67
2023-01-18T04:05:35.318Z,17.67
2023-01-18T04:08:02.518Z,20.40
2023-01-18T04:10:29.612Z,20.60
2023-01-18T04:12:57.555Z,23.50
2023-01-18T04:15:24.461Z,21.03
2023-01-18T04:17:53.412Z,20.63
2023-01-18T04:20:20.547Z,26.40
2023-01-18T04:22:52.007Z,21.37
2023-01-18T04:25:19.366Z,23.90
2023-01-18T04:27:46.518Z,21.47
2023-01-18T04:30:14.218Z,25.40
2023-01-18T04:32:42.740Z,19.70
2023-01-18T04:35:10.275Z,26.77
2023-01-18T04:37:38.328Z,26.20
2023-01-18T04:40:06.220Z,20.60
2023-01-18T04:42:33.401Z,25.30
2023-01-18T04:45:00.663Z,21.00
2023-01-18T04:47:31.119Z,19.97
2023-01-18T04:49:58.250Z,21.13
2023-01-18T04:52:26.691Z,20.47
2023-01-18T04:54:53.866Z,22.43
2023-01-18T04:57:20.996Z,18.53
2023-01-18T04:59:47.690Z,26.37
2023-01-18T05:02:15.394Z,20.30
2023-01-18T05:04:43.564Z,21.40
2023-01-18T05:07:11.194Z,21.70
2023-01-18T05:09:38.330Z,19.77
2023-01-18T05:12:05.421Z,20.43
2023-01-18T05:14:32.532Z,21.30
2023-01-18T05:16:59.216Z,18.97
2023-01-18T05:19:30.303Z,23.37
2023-01-18T05:21:57.473Z,21.13
2023-01-18T05:24:24.613Z,21.57
2023-01-18T05:26:51.264Z,18.80
2023-01-18T05:29:18.391Z,20.57
2023-01-18T05:31:45.230Z,18.30
2023-01-18T05:34:12.367Z,17.47
2023-01-18T05:36:39.509Z,17.20
2023-01-18T05:39:06.752Z,19.20
2023-01-18T05:41:33.806Z,17.53
2023-01-18T05:44:01.949Z,18.90
2023-01-18T05:46:29.047Z,17.47
2023-01-18T05:48:59.304Z,20.73
2023-01-18T05:51:26.447Z,20.77
2023-01-18T05:53:53.517Z,21.30
2023-01-18T05:56:20.596Z,22.73
2023-01-18T05:58:47.368Z,23.80
2023-01-18T06:01:14.558Z,19.63
2023-01-18T06:03:41.700Z,16.20
2023-01-18T06:06:08.833Z,26.77
2023-01-18T06:08:35.749Z,24.47
2023-01-18T06:11:02.945Z,24.27
2023-01-18T06:13:31.050Z,21.10
2023-01-18T06:15:58.927Z,20.20
2023-01-18T06:18:26.826Z,19.13
2023-01-18T06:21:01.551Z,23.43
2023-01-18T06:23:29.347Z,21.17
2023-01-18T06:25:56.931Z,17.97
2023-01-18T06:28:24.092Z,20.20
2023-01-18T06:30:55.291Z,32.70
2023-01-18T06:33:22.953Z,28.77
2023-01-18T06:35:50.031Z,44.60
2023-01-18T06:38:16.693Z,27.23
2023-01-18T06:40:43.757Z,20.40
2023-01-18T06:43:13.826Z,20.27
2023-01-18T06:45:41.376Z,17.83
2023-01-18T06:48:08.655Z,22.10
2023-01-18T06:50:35.878Z,19.40
2023-01-18T06:53:02.981Z,18.90
2023-01-18T06:55:30.048Z,18.70
2023-01-18T06:57:57.135Z,19.53
2023-01-18T07:00:23.995Z,17.77
2023-01-18T07:02:53.502Z,19.53
2023-01-18T07:05:20.857Z,27.60
2023-01-18T07:07:47.572Z,29.77
2023-01-18T07:10:16.503Z,22.80
2023-01-18T07:12:48.453Z,20.40
2023-01-18T07:15:21.995Z,22.23
2023-01-18T07:17:50.380Z,22.80
2023-01-18T07:20:17.755Z,23.23
2023-01-18T07:22:44.851Z,20.80
2023-01-18T07:25:13.313Z,16.23
2023-01-18T07:27:43.509Z,21.33
2023-01-18T07:30:14.714Z,21.63
2023-01-18T07:32:49.289Z,21.30
2023-01-18T07:35:17.176Z,22.00
2023-01-18T07:37:48.076Z,19.30
2023-01-18T07:40:15.512Z,20.77
2023-01-18T07:42:42.657Z,16.90
2023-01-18T07:45:10.339Z,24.43
2023-01-18T07:47:39.593Z,20.77
2023-01-18T07:50:06.883Z,19.17
2023-01-18T07:52:33.576Z,17.77
2023-01-18T07:55:00.663Z,17.57
2023-01-18T07:57:27.736Z,27.50
2023-01-18T07:59:54.491Z,20.73
2023-01-18T08:02:21.650Z,18.80
2023-01-18T08:04:52.368Z,18.27
2023-01-18T08:07:19.915Z,18.00
2023-01-18T08:09:46.649Z,21.73
2023-01-18T08:12:17.972Z,22.47
2023-01-18T08:14:46.040Z,24.97
2023-01-18T08:17:13.446Z,21.00
2023-01-18T08:19:40.529Z,22.03
2023-01-18T08:22:07.965Z,19.27
2023-01-18T08:24:34.821Z,20.13
2023-01-18T08:27:01.575Z,21.10
2023-01-18T08:29:28.665Z,21.93
2023-01-18T08:31:56.107Z,19.23
2023-01-18T08:34:23.227Z,18.63
2023-01-18T08:36:51.030Z,22.63
2023-01-18T08:39:17.783Z,21.53
2023-01-18T08:41:46.572Z,25.77
2023-01-18T08:44:13.774Z,21.70
2023-01-18T08:46:40.586Z,24.10
2023-01-18T08:49:07.891Z,25.97
2023-01-18T08:51:34.783Z,23.47
2023-01-18T08:54:02.060Z,22.50
2023-01-18T08:56:29.228Z,22.27
2023-01-18T08:58:57.572Z,19.83
2023-01-18T09:01:25.053Z,25.67
2023-01-18T09:03:56.227Z,21.63
2023-01-18T09:06:22.941Z,24.83
2023-01-18T09:08:50.057Z,26.33
2023-01-18T09:11:18.591Z,23.70
2023-01-18T09:13:59.838Z,22.50
2023-01-18T09:16:27.549Z,26.63
2023-01-18T09:18:56.087Z,27.23
2023-01-18T09:21:23.314Z,22.13
2023-01-18T09:23:50.945Z,24.23
2023-01-18T09:26:20.526Z,28.40
2023-01-18T09:28:49.717Z,21.93
2023-01-18T09:31:16.649Z,24.13
2023-01-18T09:33:51.281Z,24.90
2023-01-18T09:36:21.521Z,23.07
2023-01-18T09:38:48.729Z,25.67
2023-01-18T09:41:29.037Z,26.43
2023-01-18T09:43:58.101Z,24.50
2023-01-18T09:46:25.527Z,20.90
2023-01-18T09:49:02.436Z,24.73
2023-01-18T09:51:34.250Z,27.93
2023-01-18T09:54:24.729Z,27.27
2023-01-18T09:56:54.692Z,24.80
2023-01-18T09:59:25.200Z,26.73
2023-01-18T10:01:55.074Z,27.23
2023-01-18T10:04:32.469Z,27.57
2023-01-18T10:07:07.094Z,26.40
2023-01-18T10:09:49.681Z,23.80
2023-01-18T10:12:31.511Z,23.10
2023-01-18T10:15:07.560Z,24.47
2023-01-18T10:17:38.688Z,24.67
2023-01-18T10:20:16.858Z,22.77
2023-01-18T10:23:19.177Z,26.00
2023-01-18T10:25:54.317Z,25.63
2023-01-18T10:28:40.148Z,23.57
2023-01-18T10:31:22.544Z,26.17
2023-01-18T10:33:52.689Z,21.70
2023-01-18T10:36:47.383Z,24.37
2023-01-18T10:39:27.896Z,28.87
2023-01-18T10:41:59.261Z,26.50
2023-01-18T10:44:25.992Z,23.67
2023-01-18T10:47:11.983Z,22.87
2023-01-18T10:49:40.948Z,23.83
2023-01-18T10:52:28.739Z,25.53
2023-01-18T10:54:58.055Z,28.07
2023-01-18T10:57:27.405Z,26.80
2023-01-18T10:59:56.558Z,24.10
2023-01-18T11:02:29.483Z,28.20
2023-01-18T11:05:01.586Z,28.00
2023-01-18T11:07:29.627Z,28.83
2023-01-18T11:10:01.551Z,26.87
2023-01-18T11:12:34.769Z,27.40
2023-01-18T11:15:14.127Z,22.67
2023-01-18T11:17:42.155Z,27.90
2023-01-18T11:20:29.655Z,25.67
2023-01-18T11:22:59.837Z,24.40
2023-01-18T11:25:28.012Z,27.53
2023-01-18T11:28:02.130Z,25.13
2023-01-18T11:30:29.141Z,25.27
2023-01-18T11:33:00.036Z,21.87
2023-01-18T11:35:33.509Z,25.47
2023-01-18T11:38:02.212Z,23.33
2023-01-18T11:40:30.750Z,24.07
2023-01-18T11:43:20.449Z,24.17
2023-01-18T11:46:12.994Z,22.37
2023-01-18T11:48:53.500Z,22.77
2023-01-18T11:51:33.888Z,23.57
2023-01-18T11:54:13.337Z,22.27
2023-01-18T11:56:47.012Z,24.10
2023-01-18T11:59:34.329Z,25.17
2023-01-18T12:02:10.611Z,20.00
2023-01-18T12:04:46.598Z,21.97
2023-01-18T12:07:44.476Z,21.70
2023-01-18T12:10:25.202Z,24.07
2023-01-18T12:13:17.720Z,24.53
2023-01-18T12:16:00.905Z,22.10
2023-01-18T12:18:38.222Z,23.83
2023-01-18T12:21:11.765Z,19.57
2023-01-18T12:23:44.789Z,22.17
2023-01-18T12:26:54.727Z,20.10
2023-01-18T12:29:30.924Z,16.93
2023-01-18T12:32:09.016Z,15.43
2023-01-18T12:34:42.363Z,15.83
2023-01-18T12:37:47.819Z,12.90
2023-01-18T12:40:43.931Z,14.87
2023-01-18T12:43:14.207Z,13.03
2023-01-18T12:45:42.751Z,13.37
2023-01-18T12:48:24.594Z,11.37
2023-01-18T12:50:52.389Z,11.73
2023-01-18T12:53:40.184Z,12.37
2023-01-18T12:56:15.982Z,10.87
2023-01-18T12:58:44.085Z,9.20
2023-01-18T13:01:15.110Z,11.13
2023-01-18T13:03:44.166Z,14.60
2023-01-18T13:06:11.470Z,11.87
2023-01-18T13:08:42.696Z,14.17
2023-01-18T13:11:11.543Z,11.03
2023-01-18T13:13:39.345Z,12.47
2023-01-18T13:16:17.074Z,12.17
2023-01-18T13:19:06.554Z,8.33
2023-01-18T13:21:39.090Z,11.80
2023-01-18T13:24:17.614Z,9.00
2023-01-18T13:26:44.517Z,9.17
2023-01-18T13:29:20.759Z,11.97
2023-01-18T13:31:48.128Z,7.33
2023-01-18T13:34:44.460Z,11.00
2023-01-18T13:37:34.595Z,13.67
2023-01-18T13:40:01.357Z,7.67
2023-01-18T13:42:35.258Z,8.47
2023-01-18T13:45:14.690Z,8.90
2023-01-18T13:47:43.977Z,11.87
2023-01-18T13:50:28.981Z,9.60
2023-01-18T13:53:13.845Z,8.60
2023-01-18T13:55:59.739Z,9.67
2023-01-18T13:58:31.968Z,9.00
2023-01-18T14:01:05.772Z,10.53
2023-01-18T14:03:39.100Z,10.83
2023-01-18T14:06:09.111Z,8.33
2023-01-18T14:08:38.226Z,7.63
2023-01-18T14:11:10.992Z,5.53
2023-01-18T14:14:02.872Z,7.97
2023-01-18T14:16:52.305Z,6.37
2023-01-18T14:19:21.079Z,6.40
2023-01-18T14:22:17.395Z,11.23
2023-01-18T14:25:02.735Z,6.90
2023-01-18T14:27:36.464Z,9.77
2023-01-18T14:30:25.565Z,11.57
2023-01-18T14:33:16.751Z,6.63
2023-01-18T14:35:55.088Z,7.00
2023-01-18T14:38:21.837Z,9.00
2023-01-18T14:40:51.321Z,6.73
2023-01-18T14:43:29.774Z,7.53
2023-01-18T14:46:25.829Z,7.70
2023-01-18T14:48:57.805Z,10.63
2023-01-18T14:51:28.140Z,6.87
2023-01-18T14:53:59.088Z,8.60
2023-01-18T14:56:27.643Z,7.53
2023-01-18T14:59:00.642Z,9.37
2023-01-18T15:01:30.615Z,12.20
2023-01-18T15:04:00.764Z,10.27
2023-01-18T15:07:03.720Z,9.30
2023-01-18T15:09:32.843Z,10.13
2023-01-18T15:12:04.173Z,8.50
2023-01-18T15:14:35.885Z,8.23
2023-01-18T15:17:07.812Z,10.83
2023-01-18T15:19:42.331Z,12.63
2023-01-18T15:22:12.998Z,11.17
2023-01-18T15:24:42.722Z,16.23
2023-01-18T15:27:18.520Z,12.00
2023-01-18T15:29:53.902Z,11.23
2023-01-18T15:32:30.067Z,10.23
2023-01-18T15:34:58.196Z,7.97
2023-01-18T15:37:34.094Z,16.80
2023-01-18T15:40:22.545Z,12.53
2023-01-18T15:42:49.593Z,13.50
2023-01-18T15:45:25.875Z,11.63
2023-01-18T15:47:55.181Z,10.97
2023-01-18T15:50:25.625Z,8.37
2023-01-18T15:53:11.810Z,9.10
2023-01-18T15:55:46.417Z,11.20
2023-01-18T15:58:24.714Z,11.03
2023-01-18T16:01:07.811Z,12.10
2023-01-18T16:03:38.350Z,10.73
2023-01-18T16:06:17.067Z,10.63
2023-01-18T16:08:58.992Z,7.80
2023-01-18T16:11:33.332Z,9.30
2023-01-18T16:14:07.877Z,10.33
2023-01-18T16:16:42.530Z,8.43
2023-01-18T16:19:21.979Z,9.23
2023-01-18T16:21:52.771Z,9.23
2023-01-18T16:24:28.516Z,9.97
2023-01-18T16:26:57.289Z,14.27
2023-01-18T16:29:24.941Z,10.93
2023-01-18T16:31:52.443Z,8.23
2023-01-18T16:34:22.962Z,13.20
2023-01-18T16:36:52.048Z,10.07
2023-01-18T16:39:20.676Z,12.83
2023-01-18T16:41:57.556Z,12.53
2023-01-18T16:44:26.395Z,12.07
2023-01-18T16:46:54.039Z,11.20
2023-01-18T16:49:21.659Z,10.43
2023-01-18T16:51:50.558Z,14.20
2023-01-18T16:54:18.164Z,10.27
2023-01-18T16:56:47.541Z,12.87
2023-01-18T16:59:22.021Z,15.47
2023-01-18T17:01:51.287Z,10.13
2023-01-18T17:04:18.999Z,14.20
2023-01-18T17:06:46.612Z,11.60
2023-01-18T17:09:23.864Z,18.43
2023-01-18T17:11:51.912Z,24.10
2023-01-18T17:14:19.999Z,69.00
2023-01-18T17:16:49.002Z,17.47
2023-01-18T17:19:18.600Z,20.60
2023-01-18T17:21:47.041Z,12.47
2023-01-18T17:24:15.401Z,11.57
2023-01-18T17:26:43.778Z,14.00
2023-01-18T17:29:17.574Z,12.00
2023-01-18T17:31:52.233Z,10.80
2023-01-18T17:34:26.711Z,9.77
2023-01-18T17:36:55.733Z,10.97
2023-01-18T17:39:24.966Z,9.17
2023-01-18T17:41:58.793Z,7.23
2023-01-18T17:44:36.889Z,14.83
2023-01-18T17:47:04.340Z,11.40
2023-01-18T17:49:31.025Z,9.03
2023-01-18T17:51:58.070Z,10.90
2023-01-18T17:54:24.817Z,9.97
2023-01-18T17:56:53.071Z,11.47
2023-01-18T17:59:20.504Z,8.77
2023-01-18T18:01:47.695Z,9.33
2023-01-18T18:04:15.161Z,12.20
2023-01-18T18:06:49.747Z,15.00
2023-01-18T18:09:20.988Z,12.23
2023-01-18T18:11:47.952Z,11.53
2023-01-18T18:14:15.057Z,10.13
2023-01-18T18:16:43.776Z,10.70
2023-01-18T18:19:14.531Z,7.97
2023-01-18T18:21:42.388Z,11.73
2023-01-18T18:24:09.635Z,11.10
2023-01-18T18:26:36.743Z,12.47
2023-01-18T18:29:04.923Z,11.90
2023-01-18T18:31:32.035Z,10.00
2023-01-18T18:33:59.205Z,14.43
2023-01-18T18:36:27.488Z,12.37
2023-01-18T18:38:54.410Z,11.43
2023-01-18T18:41:21.460Z,10.67
2023-01-18T18:43:48.555Z,16.43
2023-01-18T18:46:15.740Z,12.83
2023-01-18T18:48:42.913Z,13.97
2023-01-18T18:51:09.898Z,13.57
2023-01-18T18:53:41.113Z,11.93
2023-01-18T18:56:11.753Z,13.10
2023-01-18T18:58:39.534Z,14.07
2023-01-18T19:01:16.860Z,11.27
2023-01-18T19:03:44.092Z,10.73
2023-01-18T19:06:11.718Z,11.60
2023-01-18T19:08:38.496Z,12.13
2023-01-18T19:11:05.607Z,11.83
2023-01-18T19:13:32.768Z,11.13
2023-01-18T19:15:59.893Z,10.03
2023-01-18T19:18:26.785Z,9.57
2023-01-18T19:20:53.969Z,10.00
2023-01-18T19:23:21.275Z,9.87
2023-01-18T19:25:49.095Z,12.80
2023-01-18T19:28:16.549Z,10.87
2023-01-18T19:30:44.132Z,9.33
2023-01-18T19:33:12.038Z,11.33
2023-01-18T19:35:40.880Z,13.10
2023-01-18T19:38:08.412Z,11.93
2023-01-18T19:40:35.571Z,15.63
2023-01-18T19:43:03.035Z,12.00
2023-01-18T19:45:31.079Z,14.93
2023-01-18T19:47:59.534Z,13.47
2023-01-18T19:50:27.271Z,12.33
2023-01-18T19:52:54.351Z,13.07
2023-01-18T19:55:21.730Z,11.77
2023-01-18T19:57:49.395Z,10.87
2023-01-18T20:00:16.740Z,11.30
2023-01-18T20:02:44.178Z,11.80
2023-01-18T20:05:10.960Z,10.53
2023-01-18T20:07:38.946Z,16.17
2023-01-18T20:10:06.663Z,11.50
2023-01-18T20:12:33.601Z,9.23
2023-01-18T20:15:00.752Z,9.43
2023-01-18T20:17:27.930Z,9.87
2023-01-18T20:19:55.313Z,9.60
2023-01-18T20:22:23.081Z,10.10
2023-01-18T20:24:49.887Z,12.10
2023-01-18T20:27:17.328Z,9.57
2023-01-18T20:29:44.890Z,11.07
2023-01-18T20:32:17.014Z,10.63
2023-01-18T20:34:46.414Z,10.93
2023-01-18T20:37:14.275Z,12.00
2023-01-18T20:39:41.438Z,12.30
2023-01-18T20:42:08.282Z,11.40
2023-01-18T20:44:35.867Z,10.13
2023-01-18T20:47:03.425Z,11.17
2023-01-18T20:49:37.844Z,9.77
2023-01-18T20:52:06.740Z,11.70
2023-01-18T20:54:35.700Z,9.33
2023-01-18T20:57:03.469Z,13.33
2023-01-18T20:59:30.608Z,14.17
2023-01-18T21:01:57.821Z,12.63
2023-01-18T21:04:25.760Z,14.13
2023-01-18T21:06:52.881Z,10.90
2023-01-18T21:09:19.967Z,11.07
2023-01-18T21:11:47.067Z,12.37
2023-01-18T21:14:14.165Z,8.40
2023-01-18T21:16:41.300Z,11.93
2023-01-18T21:19:10.141Z,11.57
2023-01-18T21:21:37.257Z,9.40
2023-01-18T21:24:04.177Z,9.33
2023-01-18T21:26:31.297Z,9.47
2023-01-18T21:28:59.228Z,10.50
2023-01-18T21:31:26.540Z,11.40
2023-01-18T21:33:54.525Z,8.80
2023-01-18T21:36:22.844Z,10.20
2023-01-18T21:38:50.296Z,7.87
2023-01-18T21:41:36.268Z,10.33
2023-01-18T21:44:21.562Z,10.33
2023-01-18T21:46:49.528Z,10.60
2023-01-18T21:49:57.684Z,10.93
2023-01-18T21:52:41.593Z,7.90
2023-01-18T21:55:08.851Z,10.47
2023-01-18T21:57:36.511Z,7.60
2023-01-18T22:00:04.968Z,8.97
2023-01-18T22:02:33.075Z,8.73
2023-01-18T22:05:00.296Z,9.43
2023-01-18T22:07:28.212Z,8.93
2023-01-18T22:10:04.590Z,11.90
2023-01-18T22:12:34.784Z,9.27
2023-01-18T22:15:02.861Z,7.30
2023-01-18T22:17:30.087Z,9.73
2023-01-18T22:19:57.013Z,11.80
2023-01-18T22:22:24.142Z,10.43
2023-01-18T22:24:50.863Z,10.47
2023-01-18T22:27:17.967Z,8.07
2023-01-18T22:29:44.658Z,12.77
2023-01-18T22:32:11.324Z,9.83
2023-01-18T22:34:38.437Z,10.70
2023-01-18T22:37:05.744Z,11.67
2023-01-18T22:39:32.911Z,10.77
2023-01-18T22:41:59.964Z,11.83
2023-01-18T22:44:27.111Z,11.03
2023-01-18T22:46:53.796Z,11.50
2023-01-18T22:49:20.900Z,11.10
2023-01-18T22:51:47.622Z,11.67
2023-01-18T22:54:15.134Z,8.87
2023-01-18T22:56:42.208Z,9.67
2023-01-18T22:59:09.278Z,10.20
2023-01-18T23:01:36.360Z,9.33
2023-01-18T23:04:04.398Z,9.73
2023-01-18T23:06:48.029Z,10.27
2023-01-18T23:09:16.276Z,10.37
2023-01-18T23:11:44.837Z,8.43
2023-01-18T23:14:30.026Z,10.10
2023-01-18T23:17:15.443Z,8.90
2023-01-18T23:19:42.518Z,9.93
2023-01-18T23:22:09.281Z,11.13
2023-01-18T23:24:36.861Z,10.13
2023-01-18T23:27:09.594Z,11.47
2023-01-18T23:29:36.752Z,12.60
2023-01-18T23:32:03.905Z,10.17
2023-01-18T23:34:31.005Z,10.60
2023-01-18T23:36:58.073Z,9.07
2023-01-18T23:39:44.058Z,10.23
2023-01-18T23:42:30.003Z,11.70
2023-01-18T23:45:16.067Z,11.10
2023-01-18T23:48:02.118Z,11.53
2023-01-18T23:50:47.416Z,13.47
2023-01-18T23:53:33.470Z,10.00
2023-01-18T23:56:00.463Z,9.23
2023-01-18T23:58:27.629Z,10.30
